createdAt,value
2022-12-20T00:01:36.095Z,97028.84
2022-12-20T00:04:06.594Z,97025.66
2022-12-20T00:06:35.906Z,97017.31
2022-12-20T00:09:06.611Z,97016.72
2022-12-20T00:11:35.949Z,97012.78
2022-12-20T00:14:05.800Z,97010.81
2022-12-20T00:16:34.451Z,97017.00
2022-12-20T00:19:05.202Z,97021.47
2022-12-20T00:21:34.463Z,97024.25
2022-12-20T00:24:03.202Z,97028.44
2022-12-20T00:26:33.812Z,97033.81
2022-12-20T00:29:02.633Z,97035.66
2022-12-20T00:31:33.268Z,97032.31
2022-12-20T00:34:01.932Z,97022.75
2022-12-20T00:36:32.203Z,97016.34
2022-12-20T00:39:01.832Z,97025.84
2022-12-20T00:41:31.752Z,97013.94
2022-12-20T00:44:00.479Z,97012.19
2022-12-20T00:46:29.079Z,97010.31
2022-12-20T00:48:58.852Z,97009.97
2022-12-20T00:51:29.387Z,97011.31
2022-12-20T00:53:57.819Z,97016.09
2022-12-20T00:56:26.465Z,97009.63
2022-12-20T00:58:55.944Z,97008.31
2022-12-20T01:01:26.726Z,97016.63
2022-12-20T01:03:55.637Z,97011.16
2022-12-20T01:06:26.531Z,97012.56
2022-12-20T01:08:55.737Z,97020.09
2022-12-20T01:11:25.684Z,97017.69
2022-12-20T01:13:56.083Z,97017.47
2022-12-20T01:16:27.703Z,97016.31
2022-12-20T01:18:56.713Z,97017.66
2022-12-20T01:21:27.682Z,97014.75
2022-12-20T01:23:56.823Z,97025.34
2022-12-20T01:26:27.541Z,97018.28
2022-12-20T01:28:57.989Z,97025.06
2022-12-20T01:31:27.576Z,97017.94
2022-12-20T01:33:55.975Z,97023.91
2022-12-20T01:36:29.391Z,97020.47
2022-12-20T01:38:58.829Z,97014.69
2022-12-20T01:41:28.605Z,97014.84
2022-12-20T01:43:58.703Z,97005.72
2022-12-20T01:46:28.924Z,97009.66
2022-12-20T01:49:01.783Z,97011.50
2022-12-20T01:51:35.641Z,97014.72
2022-12-20T01:54:08.701Z,96990.47
2022-12-20T01:56:38.488Z,96998.94
2022-12-20T01:59:07.642Z,96995.34
2022-12-20T02:01:36.113Z,96989.94
2022-12-20T02:04:04.659Z,96986.44
2022-12-20T02:06:34.383Z,96979.41
2022-12-20T02:09:05.363Z,96973.25
2022-12-20T02:11:47.933Z,96979.19
2022-12-20T02:14:29.500Z,96974.00
2022-12-20T02:17:10.981Z,96982.75
2022-12-20T02:20:06.318Z,96980.66
2022-12-20T02:22:55.669Z,96993.00
2022-12-20T02:25:45.126Z,96990.66
2022-12-20T02:28:29.088Z,96973.44
2022-12-20T02:31:02.521Z,96980.34
2022-12-20T02:33:30.993Z,96970.84
2022-12-20T02:35:59.524Z,96975.72
2022-12-20T02:38:31.500Z,96965.91
2022-12-20T02:41:04.651Z,96974.28
2022-12-20T02:44:01.568Z,96965.41
2022-12-20T02:46:33.583Z,96961.03
2022-12-20T02:49:04.403Z,96961.09
2022-12-20T02:51:34.361Z,96967.06
2022-12-20T02:54:03.454Z,96960.88
2022-12-20T02:56:38.319Z,96964.88
2022-12-20T02:59:12.240Z,96968.25
2022-12-20T03:01:46.158Z,96963.03
2022-12-20T03:04:15.561Z,96965.63
2022-12-20T03:06:57.823Z,96961.19
2022-12-20T03:09:26.224Z,96964.63
2022-12-20T03:11:55.444Z,96971.50
2022-12-20T03:14:24.743Z,96970.50
2022-12-20T03:16:54.881Z,96972.34
2022-12-20T03:19:24.234Z,96968.06
2022-12-20T03:21:53.041Z,96967.31
2022-12-20T03:24:21.296Z,96960.16
2022-12-20T03:26:49.684Z,96964.34
2022-12-20T03:29:18.016Z,96964.28
2022-12-20T03:31:46.367Z,96952.09
2022-12-20T03:34:16.249Z,96937.44
2022-12-20T03:36:44.558Z,96926.09
2022-12-20T03:39:12.897Z,96935.56
2022-12-20T03:41:41.446Z,96943.97
2022-12-20T03:44:09.797Z,96950.75
2022-12-20T03:46:38.287Z,96957.59
2022-12-20T03:49:06.742Z,96961.16
2022-12-20T03:51:36.469Z,96968.00
2022-12-20T03:54:04.870Z,96973.41
2022-12-20T03:56:33.237Z,96964.78
2022-12-20T03:59:01.583Z,96965.53
2022-12-20T04:01:30.626Z,96961.91
2022-12-20T04:03:59.207Z,96945.28
2022-12-20T04:06:27.789Z,96947.88
2022-12-20T04:08:57.543Z,96949.56
2022-12-20T04:11:25.984Z,96950.47
2022-12-20T04:13:55.254Z,96945.38
2022-12-20T04:16:25.999Z,96932.47
2022-12-20T04:18:54.570Z,96935.06
2022-12-20T04:21:24.101Z,96915.44
2022-12-20T04:23:52.436Z,96918.41
2022-12-20T04:26:22.679Z,96912.34
2022-12-20T04:28:51.243Z,96905.19
2022-12-20T04:31:23.758Z,96920.13
2022-12-20T04:33:53.036Z,96914.09
2022-12-20T04:36:22.067Z,96910.69
2022-12-20T04:38:50.426Z,96918.69
2022-12-20T04:41:23.205Z,96918.34
2022-12-20T04:43:55.041Z,96933.66
2022-12-20T04:46:24.520Z,96930.81
2022-12-20T04:48:58.964Z,96929.31
2022-12-20T04:51:30.716Z,96924.00
2022-12-20T04:53:58.076Z,96931.41
2022-12-20T04:56:28.779Z,96926.00
2022-12-20T04:58:59.846Z,96931.66
2022-12-20T05:01:28.425Z,96921.53
2022-12-20T05:03:57.366Z,96924.13
2022-12-20T05:06:25.876Z,96928.38
2022-12-20T05:08:55.174Z,96932.09
2022-12-20T05:11:23.593Z,96929.13
2022-12-20T05:13:51.939Z,96929.13
2022-12-20T05:16:21.871Z,96918.75
2022-12-20T05:18:50.292Z,96922.22
2022-12-20T05:21:36.319Z,96912.31
2022-12-20T05:24:23.549Z,96911.03
2022-12-20T05:26:52.086Z,96910.69
2022-12-20T05:29:20.445Z,96895.53
2022-12-20T05:31:50.319Z,96889.16
2022-12-20T05:34:18.846Z,96879.41
2022-12-20T05:36:47.198Z,96885.09
2022-12-20T05:39:15.679Z,96882.03
2022-12-20T05:41:44.083Z,96870.06
2022-12-20T05:44:12.386Z,96879.84
2022-12-20T05:46:40.773Z,96879.47
2022-12-20T05:49:10.562Z,96864.50
2022-12-20T05:51:38.852Z,96867.75
2022-12-20T05:54:07.241Z,96868.41
2022-12-20T05:56:35.893Z,96866.25
2022-12-20T05:59:04.467Z,96863.19
2022-12-20T06:01:33.515Z,96861.88
2022-12-20T06:04:02.067Z,96873.47
2022-12-20T06:06:31.888Z,96869.56
2022-12-20T06:09:00.325Z,96872.66
2022-12-20T06:11:30.354Z,96875.78
2022-12-20T06:13:59.228Z,96879.78
2022-12-20T06:16:28.530Z,96873.34
2022-12-20T06:18:57.436Z,96866.00
2022-12-20T06:21:27.600Z,96868.28
2022-12-20T06:23:57.316Z,96864.38
2022-12-20T06:26:25.745Z,96854.66
2022-12-20T06:28:57.032Z,96845.63
2022-12-20T06:31:25.486Z,96842.63
2022-12-20T06:33:54.020Z,96856.16
2022-12-20T06:36:22.652Z,96864.72
2022-12-20T06:38:51.045Z,96864.63
2022-12-20T06:41:21.041Z,96858.69
2022-12-20T06:43:49.404Z,96847.34
2022-12-20T06:46:17.915Z,96844.72
2022-12-20T06:48:46.294Z,96844.50
2022-12-20T06:51:14.699Z,96851.00
2022-12-20T06:53:43.105Z,96856.94
2022-12-20T06:56:11.647Z,96845.47
2022-12-20T06:58:41.397Z,96844.34
2022-12-20T07:01:10.190Z,96841.44
2022-12-20T07:03:38.661Z,96838.50
2022-12-20T07:06:07.762Z,96833.00
2022-12-20T07:08:36.113Z,96852.00
2022-12-20T07:11:06.650Z,96834.38
2022-12-20T07:13:35.760Z,96825.59
2022-12-20T07:16:06.361Z,96828.09
2022-12-20T07:18:35.642Z,96826.84
2022-12-20T07:21:06.575Z,96838.94
2022-12-20T07:23:34.976Z,96844.06
2022-12-20T07:26:04.685Z,96836.25
2022-12-20T07:28:33.401Z,96836.16
2022-12-20T07:31:03.020Z,96832.72
2022-12-20T07:33:33.094Z,96823.94
2022-12-20T07:36:02.930Z,96829.97
2022-12-20T07:38:31.467Z,96820.91
2022-12-20T07:40:59.823Z,96819.16
2022-12-20T07:43:28.318Z,96813.69
2022-12-20T07:45:58.085Z,96815.28
2022-12-20T07:48:26.588Z,96817.66
2022-12-20T07:51:02.379Z,96811.63
2022-12-20T07:53:32.696Z,96817.56
2022-12-20T07:56:03.375Z,96832.50
2022-12-20T07:58:34.093Z,96827.28
2022-12-20T08:01:04.824Z,96831.88
2022-12-20T08:03:39.231Z,96835.41
2022-12-20T08:06:10.216Z,96843.47
2022-12-20T08:08:44.184Z,96847.84
2022-12-20T08:11:13.014Z,96843.56
2022-12-20T08:13:46.247Z,96841.78
2022-12-20T08:16:15.209Z,96839.06
2022-12-20T08:18:43.716Z,96843.13
2022-12-20T08:21:14.713Z,96838.66
2022-12-20T08:23:43.324Z,96840.31
2022-12-20T08:26:11.726Z,96843.66
2022-12-20T08:28:40.117Z,96844.50
2022-12-20T08:31:10.335Z,96839.38
2022-12-20T08:33:40.234Z,96843.03
2022-12-20T08:36:10.982Z,96832.69
2022-12-20T08:38:41.935Z,96830.09
2022-12-20T08:41:12.410Z,96837.81
2022-12-20T08:43:41.913Z,96833.31
2022-12-20T08:46:12.145Z,96820.06
2022-12-20T08:48:41.411Z,96820.56
2022-12-20T08:51:11.291Z,96826.22
2022-12-20T08:53:41.258Z,96823.09
2022-12-20T08:56:11.945Z,96821.59
2022-12-20T08:58:41.261Z,96815.84
2022-12-20T09:01:12.202Z,96822.31
2022-12-20T09:03:41.408Z,96821.06
2022-12-20T09:06:11.936Z,96820.63
2022-12-20T09:08:42.133Z,96819.47
2022-12-20T09:11:13.055Z,96816.53
2022-12-20T09:13:44.263Z,96819.75
2022-12-20T09:16:15.398Z,96817.84
2022-12-20T09:18:44.252Z,96815.38
2022-12-20T09:21:12.936Z,96824.25
2022-12-20T09:23:42.738Z,96824.47
2022-12-20T09:26:14.067Z,96827.19
2022-12-20T09:28:43.230Z,96829.81
2022-12-20T09:31:13.578Z,96816.63
2022-12-20T09:33:42.577Z,96811.31
2022-12-20T09:36:12.899Z,96806.56
2022-12-20T09:38:42.618Z,96799.34
2022-12-20T09:41:26.482Z,96801.63
2022-12-20T09:43:56.084Z,96804.75
2022-12-20T09:46:26.262Z,96792.19
2022-12-20T09:48:55.284Z,96797.91
2022-12-20T09:51:38.872Z,96794.25
2022-12-20T09:54:21.853Z,96791.28
2022-12-20T09:57:00.558Z,96791.66
2022-12-20T09:59:31.975Z,96782.53
2022-12-20T10:02:35.525Z,96776.88
2022-12-20T10:04:58.661Z,96774.53
2022-12-20T10:07:38.119Z,96764.53
2022-12-20T10:10:38.700Z,96764.09
2022-12-20T10:13:20.571Z,96755.06
2022-12-20T10:15:55.578Z,96754.09
2022-12-20T10:18:37.549Z,96751.59
2022-12-20T10:21:12.307Z,96745.53
2022-12-20T10:23:47.416Z,96748.97
2022-12-20T10:26:17.152Z,96745.44
2022-12-20T10:28:49.333Z,96735.69
2022-12-20T10:31:20.896Z,96742.44
2022-12-20T10:33:49.271Z,96733.56
2022-12-20T10:36:27.432Z,96728.06
2022-12-20T10:38:57.277Z,96722.97
2022-12-20T10:41:29.721Z,96725.81
2022-12-20T10:44:02.287Z,96723.31
2022-12-20T10:46:39.654Z,96722.50
2022-12-20T10:49:31.132Z,96717.75
2022-12-20T10:52:02.307Z,96729.41
2022-12-20T10:54:34.765Z,96717.63
2022-12-20T10:57:19.421Z,96711.91
2022-12-20T10:59:52.079Z,96705.63
2022-12-20T11:02:34.982Z,96704.56
2022-12-20T11:05:23.025Z,96700.75
2022-12-20T11:10:46.748Z,96687.28
2022-12-20T11:13:25.670Z,96683.84
2022-12-20T11:16:01.449Z,96678.59
2022-12-20T11:18:42.468Z,96668.25
2022-12-20T11:21:28.064Z,96672.06
2022-12-20T11:24:03.447Z,96674.78
2022-12-20T11:26:45.365Z,96674.94
2022-12-20T11:29:33.766Z,96675.88
2022-12-20T11:32:13.664Z,96666.59
2022-12-20T11:34:51.707Z,96656.34
2022-12-20T11:37:22.567Z,96651.09
2022-12-20T11:40:05.330Z,96642.53
2022-12-20T11:42:49.123Z,96640.41
2022-12-20T11:45:26.527Z,96631.41
2022-12-20T11:48:18.906Z,96631.63
2022-12-20T11:51:00.168Z,96628.28
2022-12-20T11:53:36.238Z,96625.78
2022-12-20T11:56:11.155Z,96624.00
2022-12-20T11:58:50.142Z,96629.22
2022-12-20T12:01:25.654Z,96620.44
2022-12-20T12:04:06.140Z,96615.09
2022-12-20T12:06:37.167Z,96621.03
2022-12-20T12:09:18.308Z,96610.47
2022-12-20T12:12:09.215Z,96609.38
2022-12-20T12:14:50.077Z,96609.13
2022-12-20T12:17:27.644Z,96602.13
2022-12-20T12:20:02.680Z,96602.13
2022-12-20T12:22:36.415Z,96596.91
2022-12-20T12:25:14.717Z,96593.19
2022-12-20T12:27:43.456Z,96590.56
2022-12-20T12:30:15.075Z,96592.25
2022-12-20T12:32:51.963Z,96581.78
2022-12-20T12:35:39.966Z,96582.72
2022-12-20T12:38:35.009Z,96577.88
2022-12-20T12:41:47.909Z,96572.84
2022-12-20T12:44:41.059Z,96568.13
2022-12-20T12:47:16.840Z,96564.06
2022-12-20T12:49:49.983Z,96563.09
2022-12-20T12:52:44.091Z,96560.50
2022-12-20T12:55:41.657Z,96559.56
2022-12-20T12:58:48.757Z,96560.50
2022-12-20T13:01:58.502Z,96562.16
2022-12-20T13:04:29.436Z,96567.28
2022-12-20T13:07:31.020Z,96563.69
2022-12-20T13:10:00.085Z,96562.75
2022-12-20T13:31:34.309Z,96569.19
2022-12-20T13:34:04.074Z,96573.34
2022-12-20T13:36:35.979Z,96579.06
2022-12-20T13:39:34.368Z,96565.34
2022-12-20T13:42:18.201Z,96556.38
2022-12-20T13:44:48.225Z,96559.72
2022-12-20T13:47:39.768Z,96565.44
2022-12-20T13:50:33.081Z,96554.63
2022-12-20T13:53:01.652Z,96557.47
2022-12-20T13:55:38.967Z,96546.06
2022-12-20T13:58:12.630Z,96547.09
2022-12-20T14:00:41.506Z,96551.59
2022-12-20T14:03:21.305Z,96540.44
2022-12-20T14:05:50.480Z,96540.53
2022-12-20T14:08:22.060Z,96541.47
2022-12-20T14:11:09.487Z,96544.44
2022-12-20T14:13:38.043Z,96542.13
2022-12-20T14:16:11.692Z,96540.16
2022-12-20T14:18:41.746Z,96537.03
2022-12-20T14:21:11.985Z,96531.97
2022-12-20T14:23:45.287Z,96526.88
2022-12-20T14:26:16.965Z,96525.97
2022-12-20T14:28:48.135Z,96514.13
2022-12-20T14:31:25.809Z,96510.03
2022-12-20T14:34:05.611Z,96505.31
2022-12-20T14:36:34.503Z,96504.03
2022-12-20T14:39:02.893Z,96496.56
2022-12-20T14:41:45.094Z,96485.72
2022-12-20T14:44:18.118Z,96480.41
2022-12-20T14:46:51.338Z,96480.00
2022-12-20T14:49:24.740Z,96500.41
2022-12-20T14:52:06.557Z,96496.03
2022-12-20T14:57:39.139Z,96469.09
2022-12-20T15:00:16.244Z,96455.75
2022-12-20T15:02:51.856Z,96459.81
2022-12-20T15:05:55.888Z,96464.81
2022-12-20T15:08:28.310Z,96468.63
2022-12-20T15:11:12.385Z,96474.31
2022-12-20T15:13:42.233Z,96472.19
2022-12-20T15:16:16.510Z,96474.22
2022-12-20T15:18:45.456Z,96485.50
2022-12-20T15:21:19.739Z,96470.88
2022-12-20T15:23:51.500Z,96459.72
2022-12-20T15:26:22.063Z,96453.78
2022-12-20T15:28:50.491Z,96456.63
2022-12-20T15:31:21.353Z,96454.97
2022-12-20T15:33:50.901Z,96458.28
2022-12-20T15:36:23.307Z,96448.44
2022-12-20T15:41:42.687Z,96457.34
2022-12-20T15:44:15.343Z,96460.66
2022-12-20T15:46:44.453Z,96469.94
2022-12-20T15:49:16.241Z,96476.59
2022-12-20T15:51:47.196Z,96466.84
2022-12-20T15:54:22.872Z,96453.31
2022-12-20T15:56:51.631Z,96452.97
2022-12-20T15:59:57.516Z,96447.13
2022-12-20T16:02:19.542Z,96447.84
2022-12-20T16:04:48.035Z,96450.09
2022-12-20T16:07:18.121Z,96443.66
2022-12-20T16:09:46.671Z,96432.97
2022-12-20T16:12:16.811Z,96422.25
2022-12-20T16:14:45.283Z,96416.22
2022-12-20T16:17:15.001Z,96405.16
2022-12-20T16:19:43.998Z,96413.38
2022-12-20T16:22:18.703Z,96414.47
2022-12-20T16:24:47.376Z,96426.94
2022-12-20T16:27:15.999Z,96434.19
2022-12-20T16:29:45.570Z,96431.69
2022-12-20T16:32:16.619Z,96442.50
2022-12-20T16:34:45.696Z,96437.63
2022-12-20T16:37:14.599Z,96435.16
2022-12-20T16:39:44.905Z,96434.53
2022-12-20T16:42:15.240Z,96431.22
2022-12-20T16:44:45.594Z,96427.91
2022-12-20T16:47:15.340Z,96424.69
2022-12-20T16:49:51.711Z,96426.34
2022-12-20T16:52:22.141Z,96414.34
2022-12-20T16:54:53.005Z,96418.84
2022-12-20T16:57:21.962Z,96415.53
2022-12-20T16:59:50.417Z,96420.75
2022-12-20T17:02:24.729Z,96417.19
2022-12-20T17:04:53.380Z,96425.16
2022-12-20T17:07:22.179Z,96428.81
2022-12-20T17:09:52.434Z,96421.94
2022-12-20T17:12:23.323Z,96421.34
2022-12-20T17:14:51.747Z,96420.88
2022-12-20T17:17:20.481Z,96420.16
2022-12-20T17:19:48.881Z,96418.63
2022-12-20T17:25:07.081Z,96425.03
2022-12-20T17:27:35.530Z,96419.09
2022-12-20T17:30:04.065Z,96421.69
2022-12-20T17:32:32.447Z,96427.63
2022-12-20T17:35:00.797Z,96432.25
2022-12-20T17:37:29.448Z,96418.47
2022-12-20T17:39:57.822Z,96426.53
2022-12-20T17:42:31.329Z,96421.56
2022-12-20T17:45:00.225Z,96419.06
2022-12-20T17:47:28.545Z,96413.03
2022-12-20T17:49:58.182Z,96417.53
2022-12-20T17:52:26.679Z,96431.28
2022-12-20T17:54:55.093Z,96428.78
2022-12-20T17:57:23.592Z,96427.22
2022-12-20T17:59:53.350Z,96420.47
2022-12-20T18:02:23.900Z,96412.75
2022-12-20T18:04:53.126Z,96407.66
2022-12-20T18:07:21.617Z,96411.22
2022-12-20T18:09:50.970Z,96410.28
2022-12-20T18:12:19.524Z,96412.88
2022-12-20T18:14:49.845Z,96416.44
2022-12-20T18:17:19.560Z,96420.72
2022-12-20T18:19:47.946Z,96419.03
2022-12-20T18:22:16.493Z,96401.59
2022-12-20T18:24:44.923Z,96417.25
2022-12-20T18:27:13.680Z,96446.81
2022-12-20T18:29:42.108Z,96450.34
2022-12-20T18:32:10.637Z,96433.81
2022-12-20T18:34:40.440Z,96408.53
2022-12-20T18:37:08.809Z,96428.47
2022-12-20T18:39:37.249Z,96455.41
2022-12-20T18:42:05.710Z,96439.47
2022-12-20T18:44:35.948Z,96443.97
2022-12-20T18:47:04.847Z,96451.00
2022-12-20T18:49:33.284Z,96424.19
2022-12-20T18:52:03.107Z,96423.09
2022-12-20T18:54:31.485Z,96419.22
2022-12-20T18:57:01.851Z,96412.22
2022-12-20T18:59:30.446Z,96414.81
2022-12-20T19:01:58.926Z,96428.09
2022-12-20T19:04:27.493Z,96421.56
2022-12-20T19:06:56.019Z,96414.56
2022-12-20T19:09:25.733Z,96418.00
2022-12-20T19:11:57.366Z,96432.94
2022-12-20T19:14:26.629Z,96433.16
2022-12-20T19:16:55.101Z,96424.59
2022-12-20T19:19:23.601Z,96430.69
2022-12-20T19:21:51.987Z,96422.97
2022-12-20T19:24:20.867Z,96423.88
2022-12-20T19:26:50.607Z,96422.56
2022-12-20T19:29:19.393Z,96428.34
2022-12-20T19:31:48.008Z,96410.44
2022-12-20T19:34:16.522Z,96407.91
2022-12-20T19:36:46.440Z,96403.44
2022-12-20T19:39:16.750Z,96391.09
2022-12-20T19:41:54.893Z,96394.88
2022-12-20T19:44:35.574Z,96391.34
2022-12-20T19:47:07.096Z,96395.38
2022-12-20T19:49:36.795Z,96381.53
2022-12-20T19:52:05.891Z,96377.34
2022-12-20T19:54:35.122Z,96381.13
2022-12-20T19:57:03.900Z,96375.09
2022-12-20T19:59:32.434Z,96383.53
2022-12-20T20:02:02.396Z,96395.75
2022-12-20T20:04:30.833Z,96383.53
2022-12-20T20:06:59.191Z,96371.66
2022-12-20T20:09:27.598Z,96371.41
2022-12-20T20:11:55.985Z,96362.41
2022-12-20T20:14:24.727Z,96366.81
2022-12-20T20:16:53.172Z,96370.47
2022-12-20T20:19:22.893Z,96367.97
2022-12-20T20:21:51.695Z,96370.47
2022-12-20T20:24:20.780Z,96365.88
2022-12-20T20:26:49.805Z,96365.88
2022-12-20T20:29:18.129Z,96364.09
2022-12-20T20:31:48.233Z,96360.88
2022-12-20T20:34:16.692Z,96352.69
2022-12-20T20:36:46.416Z,96354.97
2022-12-20T20:39:14.804Z,96354.41
2022-12-20T20:41:43.324Z,96351.84
2022-12-20T20:44:12.536Z,96349.13
2022-12-20T20:46:41.041Z,96347.00
2022-12-20T20:49:09.612Z,96338.69
2022-12-20T20:51:37.920Z,96340.81
2022-12-20T20:54:07.690Z,96342.72
2022-12-20T20:56:36.027Z,96327.53
2022-12-20T20:59:08.053Z,96340.25
2022-12-20T21:01:37.870Z,96329.06
2022-12-20T21:04:07.010Z,96334.78
2022-12-20T21:06:41.228Z,96332.28
2022-12-20T21:09:12.125Z,96334.91
2022-12-20T21:11:40.608Z,96339.91
2022-12-20T21:14:09.160Z,96347.97
2022-12-20T21:16:37.686Z,96350.69
2022-12-20T21:19:06.377Z,96349.16
2022-12-20T21:21:34.720Z,96354.13
2022-12-20T21:24:03.153Z,96355.56
2022-12-20T21:26:32.856Z,96350.69
2022-12-20T21:29:01.764Z,96346.53
2022-12-20T21:31:30.877Z,96349.38
2022-12-20T21:33:59.340Z,96343.56
2022-12-20T21:36:27.749Z,96336.44
2022-12-20T21:38:58.626Z,96333.72
2022-12-20T21:41:28.877Z,96321.25
2022-12-20T21:43:59.424Z,96316.41
2022-12-20T21:46:31.910Z,96310.44
2022-12-20T21:49:00.916Z,96310.81
2022-12-20T21:51:30.685Z,96304.03
2022-12-20T21:54:01.187Z,96294.78
2022-12-20T21:56:31.185Z,96292.03
2022-12-20T21:59:02.416Z,96293.81
2022-12-20T22:01:31.702Z,96298.19
2022-12-20T22:04:02.535Z,96302.50
2022-12-20T22:06:31.470Z,96310.78
2022-12-20T22:09:00.526Z,96306.03
2022-12-20T22:11:29.462Z,96299.59
2022-12-20T22:14:00.515Z,96283.69
2022-12-20T22:16:31.819Z,96268.72
2022-12-20T22:19:01.599Z,96269.53
2022-12-20T22:21:32.500Z,96285.81
2022-12-20T22:24:02.398Z,96309.09
2022-12-20T22:26:33.146Z,96333.22
2022-12-20T22:29:05.539Z,96345.44
2022-12-20T22:31:34.710Z,96369.69
2022-12-20T22:34:03.301Z,96351.88
2022-12-20T22:36:32.139Z,96354.25
2022-12-20T22:39:00.508Z,96367.66
2022-12-20T22:41:30.516Z,96377.28
2022-12-20T22:44:00.121Z,96365.03
2022-12-20T22:46:30.530Z,96363.41
2022-12-20T22:48:59.538Z,96352.09
2022-12-20T22:51:31.021Z,96348.34
2022-12-20T22:54:01.086Z,96335.13
2022-12-20T22:56:30.023Z,96333.38
2022-12-20T22:58:58.677Z,96328.63
2022-12-20T23:01:27.530Z,96318.16
2022-12-20T23:03:57.401Z,96303.44
2022-12-20T23:06:26.198Z,96303.31
2022-12-20T23:08:54.496Z,96296.28
2022-12-20T23:11:42.074Z,96290.31
2022-12-20T23:14:30.761Z,96274.84
2022-12-20T23:16:59.540Z,96282.09
2022-12-20T23:19:50.118Z,96291.44
2022-12-20T23:22:36.143Z,96300.25
2022-12-20T23:25:05.179Z,96294.06
2022-12-20T23:27:33.963Z,96296.69
2022-12-20T23:30:02.584Z,96304.50
2022-12-20T23:32:30.982Z,96308.09
2022-12-20T23:35:03.384Z,96315.94
2022-12-20T23:37:36.399Z,96323.53
2022-12-20T23:40:05.632Z,96314.75
2022-12-20T23:42:34.012Z,96314.63
2022-12-20T23:45:02.538Z,96316.16
2022-12-20T23:47:32.304Z,96323.75
2022-12-20T23:50:02.026Z,96321.84
2022-12-20T23:52:30.489Z,96331.34
2022-12-20T23:54:58.788Z,96325.91
2022-12-20T23:57:30.183Z,96324.59
2022-12-20T23:59:58.458Z,96311.66
